sensor_id;sensor_type;location;lat;lon;timestamp;pressure;altitude;pressure_sealevel;temperature;humidity
41945;BME280;63122;52.424;13.458;2023-04-27T00:00:03;101169.34;;;6.86;100.00
41945;BME280;63122;52.424;13.458;2023-04-27T00:02:22;101170.19;;;6.86;100.00
41945;BME280;63122;52.424;13.458;2023-04-27T00:04:20;101168.53;;;6.85;100.00
41945;BME280;63122;52.424;13.458;2023-04-27T00:06:16;101168.41;;;6.87;100.00
41945;BME280;63122;52.424;13.458;2023-04-27T00:08:12;101169.75;;;6.93;100.00
41945;BME280;63122;52.424;13.458;2023-04-27T00:10:08;101164.81;;;6.76;100.00
41945;BME280;63122;52.424;13.458;2023-04-27T00:12:06;101163.13;;;6.75;100.00
41945;BME280;63122;52.424;13.458;2023-04-27T00:14:02;101158.13;;;6.72;100.00
41945;BME280;63122;52.424;13.458;2023-04-27T00:15:57;101156.72;;;6.80;100.00
41945;BME280;63122;52.424;13.458;2023-04-27T00:17:54;101163.28;;;6.85;100.00
41945;BME280;63122;52.424;13.458;2023-04-27T00:19:51;101157.03;;;6.75;100.00
41945;BME280;63122;52.424;13.458;2023-04-27T00:21:46;101157.28;;;6.83;100.00
41945;BME280;63122;52.424;13.458;2023-04-27T00:23:41;101155.28;;;6.75;100.00
41945;BME280;63122;52.424;13.458;2023-04-27T00:25:37;101160.63;;;6.74;100.00
41945;BME280;63122;52.424;13.458;2023-04-27T00:27:35;101153.53;;;6.63;100.00
41945;BME280;63122;52.424;13.458;2023-04-27T00:29:30;101154.41;;;6.75;100.00
41945;BME280;63122;52.424;13.458;2023-04-27T00:31:25;101152.66;;;6.75;100.00
41945;BME280;63122;52.424;13.458;2023-04-27T00:33:23;101160.75;;;6.84;100.00
41945;BME280;63122;52.424;13.458;2023-04-27T00:35:21;101155.84;;;6.68;100.00
41945;BME280;63122;52.424;13.458;2023-04-27T00:37:16;101156.09;;;6.76;100.00
41945;BME280;63122;52.424;13.458;2023-04-27T00:39:12;101163.13;;;6.75;100.00
41945;BME280;63122;52.424;13.458;2023-04-27T00:41:07;101158.72;;;6.76;100.00
41945;BME280;63122;52.424;13.458;2023-04-27T00:43:06;101161.81;;;6.81;100.00
41945;BME280;63122;52.424;13.458;2023-04-27T00:45:01;101164.25;;;6.84;100.00
41945;BME280;63122;52.424;13.458;2023-04-27T00:46:57;101167.44;;;6.88;100.00
41945;BME280;63122;52.424;13.458;2023-04-27T00:48:53;101170.06;;;6.76;100.00
41945;BME280;63122;52.424;13.458;2023-04-27T00:50:48;101163.38;;;6.72;100.00
41945;BME280;63122;52.424;13.458;2023-04-27T00:52:44;101168.22;;;6.66;100.00
41945;BME280;63122;52.424;13.458;2023-04-27T00:54:40;101168.69;;;6.59;100.00
41945;BME280;63122;52.424;13.458;2023-04-27T00:56:35;101172.34;;;6.57;100.00
41945;BME280;63122;52.424;13.458;2023-04-27T00:58:33;101178.22;;;6.60;100.00
41945;BME280;63122;52.424;13.458;2023-04-27T01:00:29;101170.91;;;6.53;100.00
41945;BME280;63122;52.424;13.458;2023-04-27T01:02:25;101172.13;;;6.60;100.00
41945;BME280;63122;52.424;13.458;2023-04-27T01:04:21;101176.91;;;6.66;100.00
41945;BME280;63122;52.424;13.458;2023-04-27T01:06:16;101176.66;;;6.58;100.00
41945;BME280;63122;52.424;13.458;2023-04-27T01:08:12;101178.09;;;6.62;100.00
41945;BME280;63122;52.424;13.458;2023-04-27T01:10:08;101184.28;;;6.61;100.00
41945;BME280;63122;52.424;13.458;2023-04-27T01:12:04;101177.59;;;6.57;100.00
41945;BME280;63122;52.424;13.458;2023-04-27T01:14:05;101179.56;;;6.42;100.00
41945;BME280;63122;52.424;13.458;2023-04-27T01:16:01;101184.56;;;6.45;100.00
41945;BME280;63122;52.424;13.458;2023-04-27T01:17:57;101176.16;;;6.53;100.00
41945;BME280;63122;52.424;13.458;2023-04-27T01:19:53;101181.72;;;6.48;100.00
41945;BME280;63122;52.424;13.458;2023-04-27T01:21:49;101184.84;;;6.53;100.00
41945;BME280;63122;52.424;13.458;2023-04-27T01:23:47;101178.06;;;6.51;100.00
41945;BME280;63122;52.424;13.458;2023-04-27T01:25:43;101184.75;;;6.55;100.00
41945;BME280;63122;52.424;13.458;2023-04-27T01:27:38;101186.38;;;6.44;100.00
41945;BME280;63122;52.424;13.458;2023-04-27T01:29:33;101187.97;;;6.34;100.00
41945;BME280;63122;52.424;13.458;2023-04-27T01:31:28;101188.31;;;6.29;100.00
41945;BME280;63122;52.424;13.458;2023-04-27T01:33:24;101187.41;;;6.42;100.00
41945;BME280;63122;52.424;13.458;2023-04-27T01:35:19;101178.38;;;6.46;100.00
41945;BME280;63122;52.424;13.458;2023-04-27T01:37:14;101185.13;;;6.37;100.00
41945;BME280;63122;52.424;13.458;2023-04-27T01:39:12;101188.91;;;6.33;100.00
41945;BME280;63122;52.424;13.458;2023-04-27T01:41:07;101190.59;;;6.34;100.00
41945;BME280;63122;52.424;13.458;2023-04-27T01:43:02;101195.06;;;6.45;100.00
41945;BME280;63122;52.424;13.458;2023-04-27T01:44:58;101201.56;;;6.39;100.00
41945;BME280;63122;52.424;13.458;2023-04-27T01:46:53;101197.81;;;6.43;100.00
41945;BME280;63122;52.424;13.458;2023-04-27T01:48:48;101198.53;;;6.45;100.00
41945;BME280;63122;52.424;13.458;2023-04-27T01:50:43;101197.56;;;6.46;100.00
41945;BME280;63122;52.424;13.458;2023-04-27T01:52:39;101199.34;;;6.46;100.00
41945;BME280;63122;52.424;13.458;2023-04-27T01:54:37;101199.34;;;6.46;100.00
41945;BME280;63122;52.424;13.458;2023-04-27T01:56:32;101211.22;;;6.39;100.00
41945;BME280;63122;52.424;13.458;2023-04-27T01:58:27;101209.28;;;6.29;100.00
41945;BME280;63122;52.424;13.458;2023-04-27T02:00:24;101212.94;;;6.27;100.00
41945;BME280;63122;52.424;13.458;2023-04-27T02:02:19;101219.25;;;6.11;100.00
41945;BME280;63122;52.424;13.458;2023-04-27T02:04:14;101207.72;;;6.27;100.00
41945;BME280;63122;52.424;13.458;2023-04-27T02:06:10;101210.53;;;6.24;100.00
41945;BME280;63122;52.424;13.458;2023-04-27T02:08:05;101216.00;;;6.21;100.00
41945;BME280;63122;52.424;13.458;2023-04-27T02:10:03;101209.47;;;6.26;100.00
41945;BME280;63122;52.424;13.458;2023-04-27T02:11:59;101221.63;;;6.27;100.00
41945;BME280;63122;52.424;13.458;2023-04-27T02:13:54;101216.06;;;6.32;100.00
41945;BME280;63122;52.424;13.458;2023-04-27T02:15:50;101215.75;;;6.37;100.00
41945;BME280;63122;52.424;13.458;2023-04-27T02:17:47;101211.16;;;6.27;100.00
41945;BME280;63122;52.424;13.458;2023-04-27T02:19:42;101219.00;;;6.27;100.00
41945;BME280;63122;52.424;13.458;2023-04-27T02:21:38;101219.53;;;6.32;100.00
41945;BME280;63122;52.424;13.458;2023-04-27T02:23:33;101225.00;;;6.29;100.00
41945;BME280;63122;52.424;13.458;2023-04-27T02:25:31;101222.03;;;6.34;100.00
41945;BME280;63122;52.424;13.458;2023-04-27T02:27:26;101230.97;;;6.31;100.00
41945;BME280;63122;52.424;13.458;2023-04-27T02:29:22;101228.13;;;6.34;100.00
41945;BME280;63122;52.424;13.458;2023-04-27T02:31:18;101225.88;;;6.41;100.00
41945;BME280;63122;52.424;13.458;2023-04-27T02:33:13;101226.28;;;6.48;100.00
41945;BME280;63122;52.424;13.458;2023-04-27T02:35:09;101230.34;;;6.52;100.00
41945;BME280;63122;52.424;13.458;2023-04-27T02:37:04;101232.25;;;6.50;100.00
41945;BME280;63122;52.424;13.458;2023-04-27T02:38:59;101224.28;;;6.52;100.00
41945;BME280;63122;52.424;13.458;2023-04-27T02:40:57;101234.28;;;6.46;100.00
41945;BME280;63122;52.424;13.458;2023-04-27T02:42:52;101230.94;;;6.44;100.00
41945;BME280;63122;52.424;13.458;2023-04-27T02:44:48;101229.97;;;6.45;100.00
41945;BME280;63122;52.424;13.458;2023-04-27T02:46:43;101237.31;;;6.40;100.00
41945;BME280;63122;52.424;13.458;2023-04-27T02:48:38;101232.91;;;6.41;100.00
41945;BME280;63122;52.424;13.458;2023-04-27T02:50:39;101232.69;;;6.44;100.00
41945;BME280;63122;52.424;13.458;2023-04-27T02:52:35;101229.97;;;6.45;100.00
41945;BME280;63122;52.424;13.458;2023-04-27T02:54:31;101237.16;;;6.30;100.00
41945;BME280;63122;52.424;13.458;2023-04-27T02:56:29;101240.41;;;6.21;100.00
41945;BME280;63122;52.424;13.458;2023-04-27T02:58:24;101240.09;;;6.26;100.00
41945;BME280;63122;52.424;13.458;2023-04-27T03:00:19;101239.16;;;6.27;100.00
41945;BME280;63122;52.424;13.458;2023-04-27T03:02:16;101240.59;;;6.31;100.00
41945;BME280;63122;52.424;13.458;2023-04-27T03:04:12;101242.19;;;6.33;100.00
41945;BME280;63122;52.424;13.458;2023-04-27T03:06:16;101240.38;;;6.34;100.00
41945;BME280;63122;52.424;13.458;2023-04-27T03:08:11;101243.34;;;6.29;100.00
41945;BME280;63122;52.424;13.458;2023-04-27T03:10:08;101246.78;;;6.30;100.00
41945;BME280;63122;52.424;13.458;2023-04-27T03:12:06;101247.28;;;6.35;100.00
41945;BME280;63122;52.424;13.458;2023-04-27T03:14:01;101248.00;;;6.37;100.00
41945;BME280;63122;52.424;13.458;2023-04-27T03:16:04;101247.06;;;6.38;100.00
41945;BME280;63122;52.424;13.458;2023-04-27T03:31:37;101250.13;;;6.32;100.00
41945;BME280;63122;52.424;13.458;2023-04-27T03:34:14;101261.13;;;6.37;100.00
41945;BME280;63122;52.424;13.458;2023-04-27T03:37:07;101256.31;;;6.31;100.00
41945;BME280;63122;52.424;13.458;2023-04-27T03:40:01;101260.63;;;6.32;100.00
41945;BME280;63122;52.424;13.458;2023-04-27T03:46:11;101261.69;;;6.29;100.00
41945;BME280;63122;52.424;13.458;2023-04-27T03:48:50;101265.97;;;6.30;100.00
41945;BME280;63122;52.424;13.458;2023-04-27T03:55:32;101274.25;;;6.24;100.00
41945;BME280;63122;52.424;13.458;2023-04-27T03:58:08;101271.97;;;6.19;100.00
41945;BME280;63122;52.424;13.458;2023-04-27T04:08:28;101281.41;;;6.09;100.00
41945;BME280;63122;52.424;13.458;2023-04-27T04:22:14;101304.00;;;5.97;100.00
41945;BME280;63122;52.424;13.458;2023-04-27T05:01:14;101329.47;;;5.82;100.00
41945;BME280;63122;52.424;13.458;2023-04-27T05:04:26;101325.06;;;5.57;100.00
41945;BME280;63122;52.424;13.458;2023-04-27T05:13:36;101328.94;;;5.77;100.00
41945;BME280;63122;52.424;13.458;2023-04-27T05:19:03;101330.41;;;5.81;100.00
41945;BME280;63122;52.424;13.458;2023-04-27T05:21:03;101330.09;;;5.73;100.00
41945;BME280;63122;52.424;13.458;2023-04-27T05:23:30;101332.72;;;5.86;100.00
41945;BME280;63122;52.424;13.458;2023-04-27T05:26:23;101330.84;;;5.88;100.00
41945;BME280;63122;52.424;13.458;2023-04-27T05:29:09;101330.09;;;5.73;100.00
41945;BME280;63122;52.424;13.458;2023-04-27T05:31:09;101327.28;;;5.76;100.00
41945;BME280;63122;52.424;13.458;2023-04-27T05:33:05;101329.81;;;5.78;100.00
41945;BME280;63122;52.424;13.458;2023-04-27T05:35:03;101326.97;;;5.68;100.00
41945;BME280;63122;52.424;13.458;2023-04-27T05:36:59;101327.91;;;5.67;100.00
41945;BME280;63122;52.424;13.458;2023-04-27T05:38:54;101331.78;;;5.74;100.00
41945;BME280;63122;52.424;13.458;2023-04-27T05:40:53;101337.03;;;5.74;100.00
41945;BME280;63122;52.424;13.458;2023-04-27T05:42:48;101331.78;;;5.74;100.00
41945;BME280;63122;52.424;13.458;2023-04-27T05:44:43;101335.03;;;5.78;100.00
41945;BME280;63122;52.424;13.458;2023-04-27T05:46:38;101333.88;;;5.82;100.00
41945;BME280;63122;52.424;13.458;2023-04-27T05:48:34;101336.38;;;5.83;100.00
41945;BME280;63122;52.424;13.458;2023-04-27T05:50:31;101333.47;;;5.75;100.00
41945;BME280;63122;52.424;13.458;2023-04-27T05:52:27;101336.59;;;5.93;100.00
41945;BME280;63122;52.424;13.458;2023-04-27T05:54:23;101330.34;;;5.96;100.00
41945;BME280;63122;52.424;13.458;2023-04-27T05:56:18;101340.69;;;5.84;100.00
41945;BME280;63122;52.424;13.458;2023-04-27T05:58:13;101345.91;;;5.84;100.00
41945;BME280;63122;52.424;13.458;2023-04-27T06:00:11;101342.25;;;5.74;100.00
41945;BME280;63122;52.424;13.458;2023-04-27T06:02:07;101345.31;;;5.81;100.00
41945;BME280;63122;52.424;13.458;2023-04-27T06:04:05;101348.16;;;5.90;100.00
41945;BME280;63122;52.424;13.458;2023-04-27T06:06:03;101352.00;;;5.98;100.00
41945;BME280;63122;52.424;13.458;2023-04-27T06:07:58;101348.91;;;6.05;100.00
41945;BME280;63122;52.424;13.458;2023-04-27T06:09:54;101354.94;;;5.93;100.00
41945;BME280;63122;52.424;13.458;2023-04-27T06:11:49;101354.19;;;5.91;100.00
41945;BME280;63122;52.424;13.458;2023-04-27T06:13:44;101344.81;;;6.01;100.00
41945;BME280;63122;52.424;13.458;2023-04-27T06:15:40;101356.56;;;6.22;100.00
41945;BME280;63122;52.424;13.458;2023-04-27T06:17:35;101355.69;;;6.21;100.00
41945;BME280;63122;52.424;13.458;2023-04-27T06:19:31;101355.19;;;6.16;100.00
41945;BME280;63122;52.424;13.458;2023-04-27T06:21:31;101349.72;;;6.06;100.00
41945;BME280;63122;52.424;13.458;2023-04-27T06:23:26;101361.28;;;6.03;100.00
41945;BME280;63122;52.424;13.458;2023-04-27T06:25:22;101357.94;;;6.14;100.00
41945;BME280;63122;52.424;13.458;2023-04-27T06:27:18;101358.22;;;6.10;100.00
41945;BME280;63122;52.424;13.458;2023-04-27T06:29:13;101369.88;;;6.05;100.00
41945;BME280;63122;52.424;13.458;2023-04-27T06:31:09;101363.25;;;6.13;100.00
41945;BME280;63122;52.424;13.458;2023-04-27T06:33:04;101367.84;;;6.22;100.00
41945;BME280;63122;52.424;13.458;2023-04-27T06:34:59;101367.31;;;6.30;100.00
41945;BME280;63122;52.424;13.458;2023-04-27T06:36:57;101368.56;;;6.37;100.00
41945;BME280;63122;52.424;13.458;2023-04-27T06:38:53;101363.03;;;6.42;100.00
41945;BME280;63122;52.424;13.458;2023-04-27T06:40:50;101363.13;;;6.27;100.00
41945;BME280;63122;52.424;13.458;2023-04-27T06:42:46;101361.28;;;6.16;100.00
41945;BME280;63122;52.424;13.458;2023-04-27T06:44:41;101361.56;;;6.25;100.00
41945;BME280;63122;52.424;13.458;2023-04-27T06:46:36;101363.25;;;6.26;100.00
41945;BME280;63122;52.424;13.458;2023-04-27T06:48:31;101363.25;;;6.26;100.00
41945;BME280;63122;52.424;13.458;2023-04-27T06:50:27;101360.09;;;6.33;100.00
41945;BME280;63122;52.424;13.458;2023-04-27T06:52:24;101372.56;;;6.43;100.00
41945;BME280;63122;52.424;13.458;2023-04-27T06:54:20;101372.03;;;6.51;100.00
41945;BME280;63122;52.424;13.458;2023-04-27T06:56:16;101373.38;;;6.56;100.00
41945;BME280;63122;52.424;13.458;2023-04-27T06:58:11;101374.19;;;6.70;100.00
41945;BME280;63122;52.424;13.458;2023-04-27T07:00:08;101371.44;;;6.84;100.00
41945;BME280;63122;52.424;13.458;2023-04-27T07:02:04;101383.06;;;6.80;100.00
41945;BME280;63122;52.424;13.458;2023-04-27T07:04:00;101377.56;;;6.96;100.00
41945;BME280;63122;52.424;13.458;2023-04-27T07:05:55;101377.97;;;7.03;100.00
41945;BME280;63122;52.424;13.458;2023-04-27T07:07:53;101374.88;;;7.09;99.82
41945;BME280;63122;52.424;13.458;2023-04-27T07:09:49;101379.22;;;6.97;98.35
41945;BME280;63122;52.424;13.458;2023-04-27T07:11:44;101382.59;;;6.99;99.09
41945;BME280;63122;52.424;13.458;2023-04-27T07:13:39;101377.56;;;6.96;99.93
41945;BME280;63122;52.424;13.458;2023-04-27T07:15:34;101381.25;;;6.94;100.00
41945;BME280;63122;52.424;13.458;2023-04-27T07:17:29;101382.66;;;6.86;95.84
41945;BME280;63122;52.424;13.458;2023-04-27T07:19:25;101383.59;;;6.85;96.23
41945;BME280;63122;52.424;13.458;2023-04-27T07:21:20;101378.84;;;6.90;97.71
41945;BME280;63122;52.424;13.458;2023-04-27T07:23:18;101386.19;;;6.98;98.31
41945;BME280;63122;52.424;13.458;2023-04-27T07:25:14;101388.84;;;7.10;98.49
41945;BME280;63122;52.424;13.458;2023-04-27T07:27:09;101381.66;;;7.25;95.63
41945;BME280;63122;52.424;13.458;2023-04-27T07:29:04;101389.28;;;7.28;92.77
41945;BME280;63122;52.424;13.458;2023-04-27T07:31:17;101389.53;;;7.25;92.82
41945;BME280;63122;52.424;13.458;2023-04-27T07:33:13;101387.59;;;7.15;93.17
41945;BME280;63122;52.424;13.458;2023-04-27T07:35:09;101382.53;;;6.88;93.95
41945;BME280;63122;52.424;13.458;2023-04-27T07:37:05;101381.84;;;6.97;93.67
41945;BME280;63122;52.424;13.458;2023-04-27T07:39:03;101379.94;;;7.12;94.29
41945;BME280;63122;52.424;13.458;2023-04-27T07:41:00;101381.16;;;7.19;95.21
41945;BME280;63122;52.424;13.458;2023-04-27T07:42:56;101380.09;;;7.46;91.66
41945;BME280;63122;52.424;13.458;2023-04-27T07:44:52;101377.00;;;7.53;91.57
41945;BME280;63122;52.424;13.458;2023-04-27T07:46:48;101374.63;;;7.61;88.66
41945;BME280;63122;52.424;13.458;2023-04-27T07:48:46;101382.03;;;7.67;90.22
41945;BME280;63122;52.424;13.458;2023-04-27T07:50:41;101378.75;;;7.76;89.93
41945;BME280;63122;52.424;13.458;2023-04-27T07:52:37;101385.09;;;7.85;90.16
41945;BME280;63122;52.424;13.458;2023-04-27T07:54:35;101386.53;;;8.01;88.05
41945;BME280;63122;52.424;13.458;2023-04-27T07:56:30;101388.91;;;7.92;88.32
41945;BME280;63122;52.424;13.458;2023-04-27T07:58:25;101391.06;;;7.87;88.61
41945;BME280;63122;52.424;13.458;2023-04-27T08:00:21;101394.25;;;7.68;84.78
41945;BME280;63122;52.424;13.458;2023-04-27T08:02:17;101385.59;;;7.55;87.44
41945;BME280;63122;52.424;13.458;2023-04-27T08:04:13;101392.81;;;7.75;86.34
41945;BME280;63122;52.424;13.458;2023-04-27T08:06:09;101398.19;;;7.74;86.87
41945;BME280;63122;52.424;13.458;2023-04-27T08:08:05;101394.31;;;8.02;87.26
41945;BME280;63122;52.424;13.458;2023-04-27T08:10:05;101399.44;;;8.04;83.28
41945;BME280;63122;52.424;13.458;2023-04-27T08:12:01;101396.31;;;7.87;81.26
41945;BME280;63122;52.424;13.458;2023-04-27T08:13:56;101401.53;;;7.76;83.98
41945;BME280;63122;52.424;13.458;2023-04-27T08:15:52;101397.38;;;7.85;80.03
41945;BME280;63122;52.424;13.458;2023-04-27T08:17:50;101385.19;;;7.84;79.02
41945;BME280;63122;52.424;13.458;2023-04-27T08:19:46;101390.94;;;7.89;78.22
41945;BME280;63122;52.424;13.458;2023-04-27T08:21:41;101395.00;;;7.93;78.87
41945;BME280;63122;52.424;13.458;2023-04-27T08:23:36;101401.81;;;7.96;78.02
41945;BME280;63122;52.424;13.458;2023-04-27T08:25:37;101407.66;;;7.52;76.18
41945;BME280;63122;52.424;13.458;2023-04-27T08:27:35;101403.22;;;7.41;76.47
41945;BME280;63122;52.424;13.458;2023-04-27T08:29:31;101400.47;;;7.43;77.32
41945;BME280;63122;52.424;13.458;2023-04-27T08:31:28;101402.53;;;7.51;76.39
41945;BME280;63122;52.424;13.458;2023-04-27T08:33:23;101404.69;;;7.57;76.15
41945;BME280;63122;52.424;13.458;2023-04-27T08:35:18;101400.56;;;7.77;76.24
41945;BME280;63122;52.424;13.458;2023-04-27T08:37:13;101403.78;;;7.69;75.88
41945;BME280;63122;52.424;13.458;2023-04-27T08:39:09;101398.91;;;7.76;78.47
41945;BME280;63122;52.424;13.458;2023-04-27T08:41:08;101396.19;;;7.89;76.32
41945;BME280;63122;52.424;13.458;2023-04-27T08:43:13;101405.56;;;7.69;72.07
41945;BME280;63122;52.424;13.458;2023-04-27T08:45:09;101395.09;;;7.80;74.96
41945;BME280;63122;52.424;13.458;2023-04-27T08:47:04;101398.13;;;7.98;74.41
41945;BME280;63122;52.424;13.458;2023-04-27T08:48:59;101395.38;;;8.00;73.83
41945;BME280;63122;52.424;13.458;2023-04-27T08:50:58;101394.19;;;7.92;72.15
41945;BME280;63122;52.424;13.458;2023-04-27T08:52:54;101402.53;;;7.98;73.53
41945;BME280;63122;52.424;13.458;2023-04-27T08:54:50;101399.91;;;8.09;73.73
41945;BME280;63122;52.424;13.458;2023-04-27T08:56:47;101403.16;;;8.01;74.64
41945;BME280;63122;52.424;13.458;2023-04-27T08:58:43;101408.38;;;7.90;75.36
41945;BME280;63122;52.424;13.458;2023-04-27T09:00:39;101405.00;;;7.76;78.25
41945;BME280;63122;52.424;13.458;2023-04-27T09:02:35;101404.81;;;7.55;79.83
41945;BME280;63122;52.424;13.458;2023-04-27T09:04:36;101404.50;;;7.71;81.95
41945;BME280;63122;52.424;13.458;2023-04-27T09:06:33;101408.09;;;7.70;83.61
41945;BME280;63122;52.424;13.458;2023-04-27T09:08:39;101411.78;;;7.79;85.81
41945;BME280;63122;52.424;13.458;2023-04-27T09:10:44;101406.22;;;7.84;84.86
41945;BME280;63122;52.424;13.458;2023-04-27T09:12:53;101395.00;;;7.93;82.20
41945;BME280;63122;52.424;13.458;2023-04-27T09:14:55;101410.84;;;7.80;87.46
41945;BME280;63122;52.424;13.458;2023-04-27T09:16:54;101409.38;;;7.64;84.30
41945;BME280;63122;52.424;13.458;2023-04-27T09:18:51;101397.28;;;7.51;84.28
41945;BME280;63122;52.424;13.458;2023-04-27T09:20:48;101406.19;;;7.48;83.08
41945;BME280;63122;52.424;13.458;2023-04-27T09:22:47;101411.25;;;7.27;81.88
41945;BME280;63122;52.424;13.458;2023-04-27T09:24:51;101402.75;;;7.47;82.56
41945;BME280;63122;52.424;13.458;2023-04-27T09:26:48;101407.00;;;7.61;81.25
41945;BME280;63122;52.424;13.458;2023-04-27T09:28:49;101406.91;;;7.74;76.40
41945;BME280;63122;52.424;13.458;2023-04-27T09:30:51;101403.03;;;7.67;79.49
41945;BME280;63122;52.424;13.458;2023-04-27T09:32:51;101403.72;;;7.46;84.07
41945;BME280;63122;52.424;13.458;2023-04-27T09:34:47;101405.47;;;7.46;83.58
41945;BME280;63122;52.424;13.458;2023-04-27T09:36:43;101398.50;;;7.58;81.92
41945;BME280;63122;52.424;13.458;2023-04-27T09:38:41;101392.75;;;7.53;82.76
41945;BME280;63122;52.424;13.458;2023-04-27T09:40:37;101386.47;;;7.67;82.25
41945;BME280;63122;52.424;13.458;2023-04-27T09:42:32;101386.63;;;7.76;82.19
41945;BME280;63122;52.424;13.458;2023-04-27T09:44:30;101387.72;;;7.85;83.33
41945;BME280;63122;52.424;13.458;2023-04-27T09:46:27;101381.84;;;7.93;80.41
41945;BME280;63122;52.424;13.458;2023-04-27T09:48:24;101374.50;;;8.10;76.11
41945;BME280;63122;52.424;13.458;2023-04-27T09:50:20;101382.16;;;8.24;74.32
41945;BME280;63122;52.424;13.458;2023-04-27T09:52:15;101382.13;;;8.01;76.77
41945;BME280;63122;52.424;13.458;2023-04-27T09:54:15;101387.00;;;7.95;75.57
41945;BME280;63122;52.424;13.458;2023-04-27T09:56:22;101378.75;;;7.88;75.93
41945;BME280;63122;52.424;13.458;2023-04-27T09:58:53;101380.47;;;8.00;73.26
41945;BME280;63122;52.424;13.458;2023-04-27T10:01:03;101378.22;;;8.18;69.18
41945;BME280;63122;52.424;13.458;2023-04-27T10:03:14;101380.59;;;8.10;68.92
41945;BME280;63122;52.424;13.458;2023-04-27T10:05:27;101377.84;;;8.12;69.85
41945;BME280;63122;52.424;13.458;2023-04-27T10:07:26;101382.38;;;8.10;68.75
41945;BME280;63122;52.424;13.458;2023-04-27T10:09:23;101377.13;;;7.98;70.09
41945;BME280;63122;52.424;13.458;2023-04-27T10:11:19;101384.72;;;7.90;71.06
41945;BME280;63122;52.424;13.458;2023-04-27T10:13:50;101379.84;;;7.97;70.33
41945;BME280;63122;52.424;13.458;2023-04-27T10:15:46;101378.06;;;8.09;70.70
41945;BME280;63122;52.424;13.458;2023-04-27T10:17:49;101375.94;;;8.14;72.31
41945;BME280;63122;52.424;13.458;2023-04-27T10:19:54;101384.38;;;8.06;72.83
41945;BME280;63122;52.424;13.458;2023-04-27T10:21:51;101371.16;;;7.96;74.37
41945;BME280;63122;52.424;13.458;2023-04-27T10:23:49;101381.50;;;7.86;74.73
41945;BME280;63122;52.424;13.458;2023-04-27T10:25:45;101379.59;;;7.88;74.07
41945;BME280;63122;52.424;13.458;2023-04-27T10:27:41;101383.75;;;7.80;70.95
41945;BME280;63122;52.424;13.458;2023-04-27T10:29:38;101376.59;;;7.93;71.11
41945;BME280;63122;52.424;13.458;2023-04-27T10:31:42;101391.50;;;7.70;72.51
41945;BME280;63122;52.424;13.458;2023-04-27T10:33:43;101377.16;;;7.74;74.52
41945;BME280;63122;52.424;13.458;2023-04-27T10:35:42;101376.94;;;7.77;69.28
41945;BME280;63122;52.424;13.458;2023-04-27T10:37:38;101379.50;;;8.01;68.78
41945;BME280;63122;52.424;13.458;2023-04-27T10:39:35;101380.31;;;8.02;67.56
41945;BME280;63122;52.424;13.458;2023-04-27T10:41:48;101382.22;;;7.88;68.00
41945;BME280;63122;52.424;13.458;2023-04-27T10:43:44;101374.25;;;8.01;67.47
41945;BME280;63122;52.424;13.458;2023-04-27T10:45:39;101396.56;;;8.07;66.40
41945;BME280;63122;52.424;13.458;2023-04-27T10:47:36;101382.09;;;7.78;64.05
41945;BME280;63122;52.424;13.458;2023-04-27T10:49:34;101387.25;;;8.03;61.79
41945;BME280;63122;52.424;13.458;2023-04-27T10:51:30;101377.47;;;8.05;59.09
41945;BME280;63122;52.424;13.458;2023-04-27T10:53:25;101378.56;;;8.02;60.16
41945;BME280;63122;52.424;13.458;2023-04-27T10:55:22;101368.38;;;8.09;59.21
41945;BME280;63122;52.424;13.458;2023-04-27T10:57:17;101378.59;;;8.59;61.81
41945;BME280;63122;52.424;13.458;2023-04-27T10:59:13;101369.38;;;8.76;60.12
41945;BME280;63122;52.424;13.458;2023-04-27T11:01:11;101376.56;;;9.18;59.88
41945;BME280;63122;52.424;13.458;2023-04-27T11:03:13;101371.59;;;9.58;55.90
41945;BME280;63122;52.424;13.458;2023-04-27T11:05:22;101372.28;;;9.39;56.32
41945;BME280;63122;52.424;13.458;2023-04-27T11:07:24;101360.63;;;8.87;56.30
41945;BME280;63122;52.424;13.458;2023-04-27T11:09:26;101370.84;;;9.02;56.70
41945;BME280;63122;52.424;13.458;2023-04-27T11:11:22;101363.81;;;9.02;56.76
41945;BME280;63122;52.424;13.458;2023-04-27T11:13:19;101362.16;;;8.90;57.61
41945;BME280;63122;52.424;13.458;2023-04-27T11:15:15;101357.22;;;8.97;56.16
41945;BME280;63122;52.424;13.458;2023-04-27T11:17:10;101365.75;;;8.89;56.19
41945;BME280;63122;52.424;13.458;2023-04-27T11:19:05;101365.13;;;9.08;56.13
41945;BME280;63122;52.424;13.458;2023-04-27T11:21:11;101365.13;;;9.08;56.24
41945;BME280;63122;52.424;13.458;2023-04-27T11:23:07;101375.44;;;9.21;56.26
41945;BME280;63122;52.424;13.458;2023-04-27T11:25:02;101375.44;;;8.88;56.09
41945;BME280;63122;52.424;13.458;2023-04-27T11:26:58;101369.06;;;8.91;57.36
41945;BME280;63122;52.424;13.458;2023-04-27T11:28:59;101369.22;;;8.89;56.30
41945;BME280;63122;52.424;13.458;2023-04-27T11:30:57;101363.31;;;9.08;56.50
41945;BME280;63122;52.424;13.458;2023-04-27T11:32:53;101376.03;;;9.36;56.23
41945;BME280;63122;52.424;13.458;2023-04-27T11:34:49;101375.44;;;9.32;54.12
41945;BME280;63122;52.424;13.458;2023-04-27T11:36:58;101377.25;;;9.53;52.33
41945;BME280;63122;52.424;13.458;2023-04-27T11:39:15;101378.25;;;9.62;53.73
41945;BME280;63122;52.424;13.458;2023-04-27T11:41:13;101394.75;;;9.75;52.70
41945;BME280;63122;52.424;13.458;2023-04-27T11:43:11;101375.03;;;10.01;52.99
41945;BME280;63122;52.424;13.458;2023-04-27T11:45:10;101370.06;;;10.70;52.13
41945;BME280;63122;52.424;13.458;2023-04-27T11:47:06;101374.91;;;11.35;49.13